Time;durP1;ratioP1;P1;durP2;ratioP2;P2;SDS_P1;SDS_P2;PMS_P1;PMS_P2;Temp;Humidity;BMP_temperature;BMP_pressure;BME280_temperature;BME280_humidity;BME280_pressure;Samples;Min_cycle;Max_cycle;Signal;HPM_P1;HPM_P2
2021/04/21 00:00:09;;;;;;;118.55;48.33;;;5.20;99.90;;;;;;5073434;28;20021;-76
2021/04/21 00:02:36;;;;;;;154.75;60.97;;;5.20;99.90;;;;;;5072736;28;20040;-76
2021/04/21 00:05:09;;;;;;;165.20;63.72;;;5.20;99.90;;;;;;5054932;28;20044;-76
2021/04/21 00:07:35;;;;;;;175.23;63.58;;;5.20;99.90;;;;;;5054472;28;20025;-76
2021/04/21 00:10:03;;;;;;;165.20;63.35;;;5.20;99.90;;;;;;5053041;28;20059;-76
2021/04/21 00:12:30;;;;;;;136.43;58.60;;;5.20;99.90;;;;;;5052729;28;20406;-76
2021/04/21 00:14:56;;;;;;;150.18;58.17;;;5.20;99.90;;;;;;5054288;28;20021;-76
2021/04/21 00:17:23;;;;;;;147.98;56.63;;;5.20;99.90;;;;;;5052765;28;20048;-76
2021/04/21 00:19:54;;;;;;;193.98;70.20;;;5.10;99.90;;;;;;5054209;28;20052;-76
2021/04/21 00:22:23;;;;;;;461.42;160.57;;;5.10;99.90;;;;;;5052756;28;20070;-76
2021/04/21 00:24:51;;;;;;;373.48;129.85;;;5.10;99.90;;;;;;5073839;28;20036;-76
2021/04/21 00:27:24;;;;;;;247.70;92.45;;;5.00;99.90;;;;;;5074090;28;20027;-77
2021/04/21 00:29:52;;;;;;;148.27;59.65;;;5.10;99.90;;;;;;5073742;28;20471;-77
2021/04/21 00:32:21;;;;;;;71.20;32.97;;;5.00;99.90;;;;;;5073777;28;20111;-77
2021/04/21 00:34:50;;;;;;;52.38;28.58;;;4.90;99.90;;;;;;5073921;28;20020;-77
2021/04/21 00:37:17;;;;;;;52.10;28.42;;;4.60;99.90;;;;;;5072454;28;20060;-76
2021/04/21 00:39:44;;;;;;;53.47;27.67;;;4.60;99.90;;;;;;5073674;28;20062;-76
2021/04/21 00:42:28;;;;;;;49.65;27.67;;;4.60;99.90;;;;;;5073548;28;20037;-77
2021/04/21 00:45:13;;;;;;;52.92;27.83;;;4.50;99.90;;;;;;5072345;28;20025;-76
2021/04/21 00:47:39;;;;;;;56.83;30.98;;;4.50;99.90;;;;;;5073470;28;20027;-76
2021/04/21 00:50:12;;;;;;;54.63;29.55;;;4.50;99.90;;;;;;5072159;28;20024;-76
2021/04/21 00:52:48;;;;;;;51.47;28.45;;;4.50;99.90;;;;;;5073130;28;20029;-76
2021/04/21 00:55:51;;;;;;;65.32;32.05;;;4.50;99.90;;;;;;5072095;28;20073;-76
2021/04/21 00:58:38;;;;;;;88.20;39.63;;;4.50;99.90;;;;;;5073554;28;20028;-76
2021/04/21 01:01:04;;;;;;;130.25;54.22;;;4.50;99.90;;;;;;5071874;28;20464;-76
2021/04/21 01:03:30;;;;;;;151.77;66.05;;;4.50;99.90;;;;;;5073449;28;20111;-76
2021/04/21 01:06:05;;;;;;;140.52;55.80;;;4.50;99.90;;;;;;5073235;28;20547;-76
2021/04/21 01:08:40;;;;;;;132.63;54.60;;;4.50;99.90;;;;;;5073194;28;20092;-76
2021/04/21 01:11:10;;;;;;;138.25;52.70;;;4.50;99.90;;;;;;5073018;28;20062;-76
2021/04/21 01:13:43;;;;;;;128.40;52.25;;;4.50;99.90;;;;;;5073126;28;20028;-76
2021/04/21 01:16:10;;;;;;;131.68;54.22;;;4.50;99.90;;;;;;5073099;28;20029;-76
2021/04/21 01:18:38;;;;;;;129.10;54.42;;;4.50;99.90;;;;;;5072797;28;20025;-76
2021/04/21 01:21:25;;;;;;;116.40;50.95;;;4.60;99.90;;;;;;5072600;28;20462;-76
2021/04/21 01:24:26;;;;;;;119.65;48.90;;;4.60;99.90;;;;;;5071340;28;20028;-75
2021/04/21 01:27:07;;;;;;;108.50;47.47;;;4.60;99.90;;;;;;5072769;28;20099;-76
2021/04/21 01:29:39;;;;;;;107.07;47.13;;;4.60;99.90;;;;;;5072904;28;20016;-76
2021/04/21 01:32:13;;;;;;;129.35;50.28;;;4.60;99.90;;;;;;5071422;28;20035;-75
2021/04/21 01:34:42;;;;;;;147.68;52.08;;;4.60;99.90;;;;;;5072592;28;20032;-76
2021/04/21 01:37:10;;;;;;;110.57;48.25;;;4.60;99.90;;;;;;5071385;28;20027;-75
2021/04/21 01:39:41;;;;;;;92.00;41.55;;;4.60;99.90;;;;;;5071723;28;20016;-75
2021/04/21 01:42:10;;;;;;;92.75;44.22;;;4.70;99.90;;;;;;5072349;28;20039;-76
2021/04/21 01:44:40;;;;;;;107.63;48.67;;;4.70;99.90;;;;;;5072780;28;20020;-75
2021/04/21 01:47:09;;;;;;;96.45;41.90;;;4.80;99.90;;;;;;5072787;28;20082;-75
2021/04/21 01:49:34;;;;;;;80.07;38.67;;;4.80;99.90;;;;;;5072453;28;20024;-76
2021/04/21 01:52:26;;;;;;;91.57;40.47;;;4.80;99.90;;;;;;5072769;28;20052;-75
2021/04/21 01:54:56;;;;;;;81.45;40.45;;;4.90;99.90;;;;;;5071476;28;20081;-77
2021/04/21 01:57:42;;;;;;;87.43;39.75;;;4.90;99.90;;;;;;5072529;28;20025;-76
2021/04/21 02:00:12;;;;;;;81.35;38.92;;;4.90;99.90;;;;;;5072627;28;20020;-76
2021/04/21 02:02:42;;;;;;;78.25;39.08;;;4.90;99.90;;;;;;5072421;28;20040;-76
2021/04/21 02:05:20;;;;;;;89.50;42.53;;;4.90;99.90;;;;;;5071170;28;20020;-76
2021/04/21 02:07:59;;;;;;;98.13;47.58;;;5.00;99.90;;;;;;5071145;28;20116;-76
2021/04/21 02:11:09;;;;;;;102.88;49.50;;;5.00;99.90;;;;;;5072547;28;20020;-76
2021/04/21 02:14:03;;;;;;;91.25;43.60;;;5.00;99.90;;;;;;5072405;28;20036;-76
2021/04/21 02:16:45;;;;;;;69.63;36.25;;;5.10;99.90;;;;;;5071906;28;20027;-76
2021/04/21 02:19:32;;;;;;;61.58;31.27;;;5.10;99.90;;;;;;5070857;28;20036;-76
2021/04/21 02:22:26;;;;;;;49.50;26.90;;;5.00;99.90;;;;;;5071129;28;20016;-76
2021/04/21 02:25:13;;;;;;;53.83;27.30;;;4.80;99.90;;;;;;5072510;28;20086;-76
2021/04/21 02:27:45;;;;;;;49.30;27.55;;;4.80;99.90;;;;;;5072400;28;20028;-76
2021/04/21 02:30:37;;;;;;;49.30;26.35;;;4.70;99.90;;;;;;5071015;28;20024;-76
2021/04/21 02:33:14;;;;;;;57.13;27.75;;;4.70;99.90;;;;;;5072137;28;20028;-76
2021/04/21 02:35:51;;;;;;;49.75;27.17;;;4.70;99.90;;;;;;5072278;28;20017;-76
2021/04/21 02:38:32;;;;;;;53.60;28.35;;;4.80;99.90;;;;;;5074451;28;20025;-76
2021/04/21 02:41:16;;;;;;;49.75;28.63;;;4.70;99.90;;;;;;5074701;28;20013;-76
2021/04/21 02:43:53;;;;;;;57.95;32.90;;;4.80;99.90;;;;;;5074570;28;20485;-76
2021/04/21 02:46:22;;;;;;;60.45;31.92;;;4.70;99.90;;;;;;5076123;28;20025;-76
2021/04/21 02:48:54;;;;;;;59.45;30.50;;;4.80;99.90;;;;;;5075610;28;20021;-76
2021/04/21 02:51:35;;;;;;;57.72;30.35;;;4.80;99.90;;;;;;5075677;28;20028;-76
2021/04/21 02:54:22;;;;;;;67.70;34.17;;;4.80;99.90;;;;;;5075769;28;20021;-75
2021/04/21 02:56:56;;;;;;;63.25;34.47;;;4.80;99.90;;;;;;5074536;28;20032;-75
2021/04/21 02:59:36;;;;;;;68.28;33.65;;;4.90;99.90;;;;;;5075810;28;20109;-76
2021/04/21 03:02:08;;;;;;;62.40;33.83;;;4.90;99.90;;;;;;5075713;28;20074;-76
2021/04/21 03:04:49;;;;;;;82.00;35.38;;;5.00;99.90;;;;;;5075680;28;20454;-76
2021/04/21 03:07:45;;;;;;;81.57;36.72;;;5.00;99.90;;;;;;5074203;28;20031;-76
2021/04/21 03:10:17;;;;;;;78.35;40.45;;;5.00;99.90;;;;;;5036428;28;20230;-76
2021/04/21 03:12:49;;;;;;;91.53;46.63;;;4.90;99.90;;;;;;5075332;28;20036;-76
2021/04/21 03:15:19;;;;;;;75.22;43.03;;;4.80;99.90;;;;;;5075511;28;20462;-76
2021/04/21 03:17:47;;;;;;;110.78;53.25;;;4.90;99.90;;;;;;5073557;28;20031;-76
2021/04/21 03:20:13;;;;;;;76.18;38.75;;;4.90;99.90;;;;;;5073921;28;20016;-76
2021/04/21 03:22:40;;;;;;;252.27;110.40;;;4.90;99.90;;;;;;5075157;28;20047;-76
2021/04/21 03:25:21;;;;;;;105.25;50.40;;;4.90;99.90;;;;;;5073899;28;20036;-76
2021/04/21 03:27:52;;;;;;;63.80;32.38;;;5.00;99.90;;;;;;5075209;28;20044;-77
2021/04/21 03:30:20;;;;;;;58.20;31.67;;;4.90;99.90;;;;;;5074969;28;20027;-77
2021/04/21 03:32:52;;;;;;;65.70;32.08;;;5.00;99.90;;;;;;5074957;28;20535;-77
2021/04/21 03:35:22;;;;;;;56.55;30.27;;;5.00;99.90;;;;;;5073696;28;20074;-77
2021/04/21 03:37:59;;;;;;;56.85;30.77;;;5.00;99.90;;;;;;5074947;28;20485;-76
2021/04/21 03:40:25;;;;;;;65.05;35.42;;;5.00;99.90;;;;;;5074817;28;20052;-76
2021/04/21 03:42:51;;;;;;;53.92;32.83;;;5.00;99.90;;;;;;5074830;28;20283;-77
2021/04/21 03:45:18;;;;;;;62.78;34.70;;;5.00;99.90;;;;;;5073453;28;20020;-77
2021/04/21 03:47:45;;;;;;;76.68;40.92;;;5.00;99.90;;;;;;5073841;28;20028;-76
2021/04/21 03:50:11;;;;;;;87.38;45.55;;;5.10;99.90;;;;;;5073470;28;20120;-77
2021/04/21 03:52:39;;;;;;;93.13;45.55;;;5.10;99.90;;;;;;5074357;28;20099;-76
2021/04/21 03:55:07;;;;;;;81.88;42.08;;;5.10;99.90;;;;;;5073391;28;20032;-76
2021/04/21 03:57:34;;;;;;;81.90;42.60;;;5.10;99.90;;;;;;5073123;28;20040;-76
2021/04/21 04:00:04;;;;;;;82.45;43.70;;;5.20;99.90;;;;;;5073283;28;20025;-76
2021/04/21 04:02:33;;;;;;;78.40;43.63;;;5.20;99.90;;;;;;5074298;28;20029;-76
2021/04/21 04:05:05;;;;;;;79.63;45.92;;;5.20;99.90;;;;;;5074514;28;20028;-76
2021/04/21 04:07:39;;;;;;;214.82;88.53;;;5.30;99.90;;;;;;5074338;28;20378;-77
2021/04/21 04:10:11;;;;;;;109.55;55.85;;;5.30;99.90;;;;;;5073900;28;20048;-76
2021/04/21 04:12:39;;;;;;;97.88;50.95;;;5.30;99.90;;;;;;5073036;28;20021;-76
2021/04/21 04:15:08;;;;;;;94.15;51.60;;;5.40;99.90;;;;;;5074145;28;20024;-76
2021/04/21 04:17:37;;;;;;;127.03;60.38;;;5.40;99.90;;;;;;5071915;28;20082;-76
2021/04/21 04:20:06;;;;;;;113.90;54.90;;;5.40;99.90;;;;;;5074104;28;20031;-76
2021/04/21 04:22:35;;;;;;;90.60;45.97;;;5.50;99.90;;;;;;5072568;28;20035;-76
2021/04/21 04:25:03;;;;;;;72.38;39.28;;;5.50;99.90;;;;;;5074083;28;20029;-76
2021/04/21 04:27:30;;;;;;;68.70;38.90;;;5.50;99.90;;;;;;5073690;28;20024;-76
2021/04/21 04:30:00;;;;;;;68.90;38.92;;;5.50;99.90;;;;;;5071874;28;20032;-76
2021/04/21 04:32:27;;;;;;;68.50;38.08;;;5.50;99.90;;;;;;5072475;28;20047;-77
2021/04/21 04:34:56;;;;;;;65.93;36.67;;;5.50;99.90;;;;;;5072651;28;20523;-76
2021/04/21 04:37:24;;;;;;;79.35;39.15;;;5.50;99.90;;;;;;5072396;28;20073;-77
2021/04/21 04:39:50;;;;;;;64.65;35.60;;;5.50;99.90;;;;;;5072397;28;20059;-76
2021/04/21 04:42:16;;;;;;;63.25;36.33;;;5.50;99.90;;;;;;5072222;28;20082;-76
2021/04/21 04:44:45;;;;;;;71.93;38.53;;;5.50;99.90;;;;;;5073659;28;20021;-77
2021/04/21 04:47:15;;;;;;;91.85;41.08;;;5.50;99.90;;;;;;5072205;28;20474;-76
2021/04/21 04:49:54;;;;;;;76.97;41.92;;;5.60;99.90;;;;;;5073431;28;20474;-77
2021/04/21 04:52:20;;;;;;;177.15;70.85;;;5.60;99.90;;;;;;5071553;28;20024;-76
2021/04/21 04:54:51;;;;;;;266.65;113.78;;;5.70;99.90;;;;;;5070238;28;20509;-76
2021/04/21 04:57:18;;;;;;;284.70;130.52;;;5.60;99.90;;;;;;5072736;28;20408;-76
2021/04/21 04:59:47;;;;;;;172.43;84.13;;;5.70;99.90;;;;;;5070247;28;20036;-76
2021/04/21 05:02:15;;;;;;;191.20;93.15;;;5.80;99.90;;;;;;5072419;28;20496;-76
2021/04/21 05:04:59;;;;;;;112.47;60.60;;;5.90;99.90;;;;;;5071617;28;20076;-76
2021/04/21 05:07:33;;;;;;;118.82;63.72;;;6.00;99.90;;;;;;5071239;28;20024;-76
2021/04/21 05:10:03;;;;;;;101.70;55.00;;;6.00;99.90;;;;;;5073212;28;20020;-76
2021/04/21 05:12:36;;;;;;;91.63;51.75;;;6.00;99.90;;;;;;5055109;28;20502;-76
2021/04/21 05:15:03;;;;;;;99.57;51.45;;;6.10;99.90;;;;;;5064984;28;20112;-75
2021/04/21 05:18:08;;;;;;;100.05;52.83;;;6.20;99.90;;;;;;5071519;28;20469;-76
2021/04/21 05:21:03;;;;;;;100.90;52.55;;;6.30;99.90;;;;;;5072856;28;20066;-77
2021/04/21 05:24:00;;;;;;;89.90;49.88;;;6.30;99.90;;;;;;5069641;28;20048;-77
2021/04/21 05:27:02;;;;;;;95.45;53.80;;;6.40;99.90;;;;;;5072220;28;20039;-76
2021/04/21 05:29:28;;;;;;;96.37;53.27;;;6.50;99.90;;;;;;5072643;28;20104;-76
2021/04/21 05:32:31;;;;;;;85.72;49.80;;;6.40;99.90;;;;;;5071514;28;20115;-76
2021/04/21 05:35:11;;;;;;;87.50;50.92;;;6.50;99.90;;;;;;5072964;28;20048;-76
2021/04/21 05:37:40;;;;;;;92.70;51.58;;;6.60;99.90;;;;;;5072433;28;20036;-76
2021/04/21 05:40:27;;;;;;;89.07;50.58;;;6.60;99.90;;;;;;5065750;28;20035;-76
2021/04/21 05:43:14;;;;;;;89.28;51.58;;;6.70;99.90;;;;;;5063277;28;20039;-77
2021/04/21 05:45:48;;;;;;;93.45;52.53;;;6.70;99.90;;;;;;5062640;28;20028;-79
2021/04/21 05:49:05;;;;;;;94.38;52.28;;;6.80;99.90;;;;;;5070450;28;20498;-77
2021/04/21 05:51:55;;;;;;;95.70;52.05;;;6.90;99.90;;;;;;5032536;28;20041;-77
2021/04/21 05:54:39;;;;;;;95.53;52.25;;;7.00;99.90;;;;;;5050884;28;20036;-78
2021/04/21 05:57:50;;;;;;;90.88;48.97;;;7.00;99.90;;;;;;5050274;28;20028;-79
2021/04/21 06:00:33;;;;;;;85.30;47.15;;;7.10;99.90;;;;;;5044908;28;20055;-77
2021/04/21 06:03:01;;;;;;;85.45;48.10;;;7.20;99.90;;;;;;5049345;28;20040;-79
2021/04/21 06:05:26;;;;;;;87.93;48.92;;;7.30;99.90;;;;;;5050303;28;20117;-78
2021/04/21 06:07:52;;;;;;;81.45;48.30;;;7.40;99.90;;;;;;5057186;28;20124;-78
2021/04/21 06:10:18;;;;;;;83.57;44.63;;;7.60;99.90;;;;;;5070571;28;20029;-77
2021/04/21 06:12:45;;;;;;;98.70;51.63;;;7.90;99.90;;;;;;5074545;28;20028;-78
2021/04/21 06:15:14;;;;;;;85.93;50.97;;;8.20;99.90;;;;;;5074324;28;20027;-78
2021/04/21 06:17:51;;;;;;;90.88;50.53;;;8.40;99.90;;;;;;5071743;28;20048;-78
2021/04/21 06:20:34;;;;;;;84.22;48.42;;;8.50;99.90;;;;;;5070765;28;20021;-78
2021/04/21 06:23:15;;;;;;;86.55;48.30;;;8.70;99.90;;;;;;5062317;28;20058;-78
2021/04/21 06:25:43;;;;;;;90.63;49.35;;;8.90;99.90;;;;;;5072237;28;20027;-78
2021/04/21 06:28:20;;;;;;;89.85;48.75;;;9.00;99.90;;;;;;5068468;28;20103;-78
2021/04/21 06:30:49;;;;;;;86.55;47.78;;;9.10;99.90;;;;;;5070886;28;20024;-80
2021/04/21 06:33:16;;;;;;;87.43;46.03;;;9.20;99.90;;;;;;5083099;28;20024;-78
2021/04/21 06:35:43;;;;;;;83.88;48.67;;;9.30;99.90;;;;;;5061016;28;20032;-78
2021/04/21 06:38:10;;;;;;;88.30;47.45;;;9.40;99.90;;;;;;5072185;28;20032;-77
2021/04/21 06:40:38;;;;;;;81.22;45.35;;;9.60;99.10;;;;;;5072344;28;20508;-78
2021/04/21 06:43:04;;;;;;;83.05;46.20;;;9.70;98.00;;;;;;5073402;28;20028;-78
2021/04/21 06:45:32;;;;;;;80.55;41.78;;;10.00;98.00;;;;;;5075673;28;20513;-78
2021/04/21 06:48:00;;;;;;;71.60;41.55;;;10.30;95.20;;;;;;5075640;28;20031;-78
2021/04/21 06:50:32;;;;;;;76.20;42.10;;;10.70;92.50;;;;;;5071824;28;20039;-78
2021/04/21 06:53:00;;;;;;;65.95;40.25;;;10.80;87.60;;;;;;5074249;28;20033;-78
2021/04/21 06:55:26;;;;;;;72.43;40.00;;;11.10;86.30;;;;;;5075800;28;20032;-78
2021/04/21 06:57:52;;;;;;;62.80;35.95;;;11.30;87.00;;;;;;5075492;28;20039;-78
2021/04/21 07:00:24;;;;;;;62.35;34.17;;;11.20;80.00;;;;;;5074347;28;20013;-78
2021/04/21 07:02:54;;;;;;;58.30;29.98;;;11.20;81.40;;;;;;5070791;28;20037;-79
2021/04/21 07:05:33;;;;;;;54.72;31.08;;;11.00;79.70;;;;;;5065374;28;20025;-79
2021/04/21 07:08:00;;;;;;;52.08;30.88;;;10.80;79.80;;;;;;5062638;28;20104;-78
2021/04/21 07:10:26;;;;;;;49.08;29.95;;;10.70;81.80;;;;;;5071193;28;20153;-78
2021/04/21 07:12:52;;;;;;;50.03;30.42;;;10.50;81.20;;;;;;5075282;28;20047;-78
2021/04/21 07:15:20;;;;;;;50.22;28.27;;;10.50;81.80;;;;;;5073554;28;20533;-78
2021/04/21 07:17:47;;;;;;;52.95;29.00;;;10.80;82.80;;;;;;5074008;28;20016;-78
2021/04/21 07:20:13;;;;;;;50.08;29.55;;;11.10;80.00;;;;;;5075308;28;20023;-78
2021/04/21 07:22:39;;;;;;;50.38;28.67;;;11.30;78.50;;;;;;5072788;28;20032;-78
2021/04/21 07:25:06;;;;;;;58.53;29.35;;;11.60;78.20;;;;;;5073820;28;20377;-79
2021/04/21 07:27:32;;;;;;;46.65;25.92;;;12.10;79.40;;;;;;5073817;28;20032;-79
2021/04/21 07:29:57;;;;;;;41.67;23.67;;;12.40;74.10;;;;;;5075128;28;20031;-79
2021/04/21 07:32:24;;;;;;;44.25;25.67;;;12.70;72.80;;;;;;5074892;28;20394;-79
2021/04/21 07:35:04;;;;;;;48.03;25.30;;;12.90;69.90;;;;;;5075073;28;20017;-79
2021/04/21 07:37:40;;;;;;;47.25;24.88;;;12.70;69.00;;;;;;5073500;28;20359;-79
2021/04/21 07:40:24;;;;;;;48.92;27.02;;;12.50;67.60;;;;;;5070662;28;20395;-80
2021/04/21 07:42:50;;;;;;;46.97;25.67;;;12.40;69.10;;;;;;5071699;28;20123;-79
2021/04/21 07:45:20;;;;;;;51.83;28.48;;;12.20;69.10;;;;;;5074869;28;20056;-80
2021/04/21 07:47:46;;;;;;;51.30;26.70;;;11.90;69.70;;;;;;5073759;28;20094;-79
2021/04/21 07:50:12;;;;;;;51.30;26.35;;;12.00;72.20;;;;;;5074659;28;20031;-79
2021/04/21 07:52:38;;;;;;;42.60;24.83;;;11.90;71.10;;;;;;5074651;28;20017;-79
2021/04/21 07:55:21;;;;;;;52.95;28.52;;;11.80;73.40;;;;;;5074664;28;20152;-79
2021/04/21 07:58:00;;;;;;;47.38;28.45;;;11.80;73.30;;;;;;5074317;28;20028;-79
2021/04/21 08:00:28;;;;;;;49.35;29.48;;;11.80;73.60;;;;;;5074543;28;20041;-79
2021/04/21 08:02:55;;;;;;;48.90;28.52;;;11.80;75.20;;;;;;5074144;28;20036;-79
2021/04/21 08:05:21;;;;;;;47.65;27.50;;;11.90;75.40;;;;;;5074198;28;20478;-79
2021/04/21 08:07:55;;;;;;;44.05;26.42;;;12.20;75.00;;;;;;5065450;28;20025;-80
2021/04/21 08:10:27;;;;;;;41.20;24.98;;;12.30;74.20;;;;;;5074615;28;20032;-79
2021/04/21 08:12:55;;;;;;;37.28;23.25;;;12.50;73.80;;;;;;5074415;28;20481;-80
2021/04/21 08:15:42;;;;;;;38.97;23.38;;;12.60;71.50;;;;;;5074370;28;20048;-79
2021/04/21 08:18:07;;;;;;;34.35;20.70;;;12.60;71.70;;;;;;5073143;28;20031;-79
2021/04/21 08:20:42;;;;;;;35.83;22.15;;;12.60;70.10;;;;;;5067995;28;20040;-79
2021/04/21 08:23:09;;;;;;;38.42;21.70;;;12.50;70.50;;;;;;5059155;28;20036;-80
2021/04/21 08:25:35;;;;;;;30.92;20.42;;;12.40;70.60;;;;;;5053926;28;20017;-79
2021/04/21 08:28:01;;;;;;;36.33;19.98;;;12.30;69.60;;;;;;5058627;28;20082;-80
2021/04/21 08:30:28;;;;;;;37.30;21.75;;;12.20;68.80;;;;;;5061073;28;20482;-80
2021/04/21 08:32:54;;;;;;;110.68;60.28;;;12.10;69.40;;;;;;5061298;28;20167;-78
2021/04/21 08:35:19;;;;;;;42.75;24.50;;;12.00;68.60;;;;;;5063869;28;20137;-79
2021/04/21 08:37:45;;;;;;;33.28;18.88;;;12.10;69.20;;;;;;5066148;28;20441;-79
2021/04/21 08:40:14;;;;;;;33.78;20.88;;;12.40;70.00;;;;;;5060801;28;20610;-80
2021/04/21 08:42:44;;;;;;;28.88;16.83;;;12.80;70.70;;;;;;5072222;28;20033;-80
2021/04/21 08:45:11;;;;;;;120.05;61.75;;;13.00;64.40;;;;;;5073606;28;20049;-79
2021/04/21 08:47:40;;;;;;;36.95;21.58;;;13.30;63.60;;;;;;5069468;28;20012;-80
2021/04/21 08:50:09;;;;;;;34.95;20.70;;;13.40;61.60;;;;;;5064917;28;20025;-80
2021/04/21 08:52:56;;;;;;;22.10;14.30;;;13.70;63.30;;;;;;5051578;28;20021;-80
2021/04/21 08:55:26;;;;;;;24.90;16.67;;;14.10;62.20;;;;;;5052224;28;20039;-81
2021/04/21 08:57:53;;;;;;;39.05;23.80;;;14.30;59.60;;;;;;5053259;28;20037;-81
2021/04/21 09:00:20;;;;;;;22.50;15.50;;;14.30;57.50;;;;;;5053244;28;20024;-81
2021/04/21 09:02:47;;;;;;;21.02;12.82;;;14.50;57.80;;;;;;5051436;28;20716;-81
2021/04/21 09:05:16;;;;;;;17.60;13.95;;;14.60;56.90;;;;;;5053310;28;20378;-81
2021/04/21 09:07:43;;;;;;;17.67;11.60;;;14.80;56.10;;;;;;5050773;28;20094;-82
2021/04/21 09:10:10;;;;;;;18.20;12.68;;;14.70;55.60;;;;;;5053272;28;20029;-82
2021/04/21 09:12:36;;;;;;;18.63;12.50;;;14.70;55.50;;;;;;5052037;28;20098;-82
2021/04/21 09:15:08;;;;;;;22.02;14.55;;;14.80;55.70;;;;;;5052011;28;20051;-82
2021/04/21 09:17:46;;;;;;;40.65;26.38;;;14.60;54.40;;;;;;5051722;28;20021;-81
2021/04/21 09:20:14;;;;;;;25.45;14.55;;;14.70;55.30;;;;;;5052802;28;20031;-82
2021/04/21 09:23:01;;;;;;;21.48;14.13;;;14.80;54.60;;;;;;5051567;28;20466;-82
2021/04/21 09:25:35;;;;;;;19.88;12.10;;;14.90;54.10;;;;;;5051493;28;20107;-82
2021/04/21 09:28:02;;;;;;;23.45;12.60;;;15.10;54.00;;;;;;5052776;28;20028;-83
2021/04/21 09:30:28;;;;;;;21.13;12.98;;;15.30;54.20;;;;;;5051445;28;20044;-82
2021/04/21 09:32:56;;;;;;;18.60;12.98;;;15.20;53.70;;;;;;5051392;28;20021;-82
2021/04/21 09:35:26;;;;;;;26.98;14.30;;;15.20;53.30;;;;;;5052761;28;20028;-82
2021/04/21 09:38:06;;;;;;;20.63;13.02;;;15.10;52.40;;;;;;5052581;28;20021;-81
2021/04/21 09:40:43;;;;;;;22.73;14.40;;;15.20;53.70;;;;;;5051472;28;20037;-81
2021/04/21 09:43:20;;;;;;;19.98;12.32;;;15.10;52.30;;;;;;5052568;28;20033;-81
2021/04/21 09:45:47;;;;;;;20.98;12.18;;;15.10;52.30;;;;;;5052235;28;20067;-82
2021/04/21 09:48:15;;;;;;;19.17;13.18;;;15.30;52.80;;;;;;5051320;28;20055;-82
2021/04/21 09:50:42;;;;;;;20.48;12.57;;;15.40;53.50;;;;;;5052593;28;20052;-82
2021/04/21 09:53:23;;;;;;;17.63;11.27;;;15.30;52.20;;;;;;5052349;28;20501;-81
2021/04/21 09:56:07;;;;;;;16.35;11.95;;;15.20;51.80;;;;;;5051262;28;20479;-82
2021/04/21 09:58:39;;;;;;;17.05;11.45;;;15.20;51.20;;;;;;5051019;28;20033;-82
2021/04/21 10:01:26;;;;;;;16.92;11.20;;;15.30;52.20;;;;;;5050674;28;20024;-82
2021/04/21 10:04:12;;;;;;;16.35;11.55;;;15.40;51.80;;;;;;5051106;28;20068;-83
2021/04/21 10:06:55;;;;;;;15.05;11.50;;;15.70;51.40;;;;;;5052349;28;20067;-82
2021/04/21 10:09:27;;;;;;;15.25;10.80;;;15.70;49.80;;;;;;5051180;28;20029;-85
2021/04/21 10:12:13;;;;;;;18.92;11.32;;;16.10;51.80;;;;;;5051073;28;20025;-83
2021/04/21 10:14:40;;;;;;;17.00;10.45;;;16.20;50.10;;;;;;5052546;28;20033;-83
2021/04/21 10:17:06;;;;;;;15.23;10.43;;;16.20;50.70;;;;;;5050956;28;20450;-82
2021/04/21 10:19:33;;;;;;;15.00;10.80;;;16.00;49.00;;;;;;5051154;28;20033;-84
2021/04/21 10:21:59;;;;;;;17.67;10.70;;;15.80;48.40;;;;;;5050908;28;20071;-82
2021/04/21 10:24:27;;;;;;;12.32;9.27;;;15.40;48.00;;;;;;5050842;28;20029;-82
2021/04/21 10:26:54;;;;;;;15.90;8.68;;;15.50;49.20;;;;;;5050863;28;20031;-82
2021/04/21 10:29:21;;;;;;;12.05;9.40;;;15.70;49.10;;;;;;5050942;28;20036;-82
2021/04/21 10:31:48;;;;;;;15.32;9.05;;;16.00;50.20;;;;;;5050679;28;20021;-83
2021/04/21 10:34:14;;;;;;;14.02;9.00;;;16.30;49.70;;;;;;5051970;28;20032;-82
2021/04/21 10:36:42;;;;;;;10.10;9.00;;;16.70;50.50;;;;;;5052066;28;20056;-83
2021/04/21 10:39:08;;;;;;;14.45;9.40;;;16.60;47.20;;;;;;5052213;28;20025;-83
2021/04/21 10:41:43;;;;;;;14.52;8.45;;;16.20;47.30;;;;;;5050522;28;20025;-82
2021/04/21 10:44:15;;;;;;;12.48;8.23;;;16.20;48.50;;;;;;5050729;28;20491;-82
2021/04/21 10:46:59;;;;;;;13.70;9.33;;;16.30;47.60;;;;;;5051324;28;20096;-83
2021/04/21 10:49:36;;;;;;;14.70;9.85;;;16.20;47.10;;;;;;5052012;28;20100;-83
2021/04/21 10:52:22;;;;;;;12.93;8.57;;;16.00;46.60;;;;;;5050672;28;20029;-84
2021/04/21 10:54:50;;;;;;;14.55;8.13;;;16.50;47.40;;;;;;5051979;28;20533;-83
2021/04/21 10:57:22;;;;;;;14.48;9.75;;;16.70;47.30;;;;;;5052604;28;20037;-83
2021/04/21 11:00:10;;;;;;;17.98;9.52;;;16.70;46.00;;;;;;5055590;28;20040;-82
2021/04/21 11:02:45;;;;;;;17.60;10.93;;;17.00;47.10;;;;;;5054207;28;20041;-82
2021/04/21 11:05:19;;;;;;;14.45;9.85;;;16.80;45.70;;;;;;5054280;28;20029;-82
2021/04/21 11:07:57;;;;;;;15.45;9.35;;;17.00;47.00;;;;;;5055540;28;20029;-82
2021/04/21 11:10:36;;;;;;;12.82;9.77;;;17.00;46.60;;;;;;5054225;28;20112;-82
2021/04/21 11:13:02;;;;;;;12.32;9.88;;;16.90;45.90;;;;;;5053989;28;20494;-81
2021/04/21 11:15:51;;;;;;;17.17;11.25;;;16.80;44.80;;;;;;5055856;28;20163;-82
2021/04/21 11:18:30;;;;;;;15.18;10.38;;;16.40;45.00;;;;;;5055202;28;20206;-83
2021/04/21 11:20:59;;;;;;;14.57;9.52;;;16.10;45.90;;;;;;5054163;28;20029;-83
2021/04/21 11:24:02;;;;;;;15.75;9.77;;;16.20;46.30;;;;;;5054154;28;20037;-83
2021/04/21 11:26:30;;;;;;;15.93;10.52;;;16.30;47.40;;;;;;5055158;28;20021;-84
2021/04/21 11:29:01;;;;;;;13.90;10.63;;;16.30;45.40;;;;;;5053889;28;20017;-84
2021/04/21 11:31:44;;;;;;;17.20;10.88;;;16.60;46.10;;;;;;5055020;28;20071;-83
2021/04/21 11:34:33;;;;;;;13.50;9.60;;;16.90;45.50;;;;;;5054523;28;20025;-83
2021/04/21 11:37:05;;;;;;;16.23;10.15;;;16.90;45.40;;;;;;5046990;28;20052;-81
2021/04/21 11:39:43;;;;;;;11.88;8.82;;;16.90;44.70;;;;;;5055867;28;20112;-81
2021/04/21 11:42:28;;;;;;;14.80;9.25;;;16.90;44.40;;;;;;5053471;28;20029;-83
2021/04/21 11:45:02;;;;;;;13.80;8.88;;;16.60;44.50;;;;;;5063249;28;20036;-86
2021/04/21 11:47:37;;;;;;;20.63;8.52;;;16.40;44.70;;;;;;5070346;28;20039;-85
2021/04/21 11:50:02;;;;;;;13.32;8.93;;;15.90;43.90;;;;;;5068901;28;20500;-84
2021/04/21 11:52:58;;;;;;;12.18;8.85;;;15.70;44.60;;;;;;5062339;28;20162;-83
2021/04/21 11:55:30;;;;;;;12.90;8.93;;;15.50;46.10;;;;;;5063691;28;20021;-83
2021/04/21 11:58:01;;;;;;;8.85;7.35;;;15.50;47.40;;;;;;5063652;28;20471;-82
2021/04/21 12:00:31;;;;;;;8.55;6.68;;;14.70;48.30;;;;;;5061756;28;20393;-82
2021/04/21 12:02:58;;;;;;;8.75;5.68;;;14.20;49.90;;;;;;5074326;28;20033;-80
2021/04/21 12:05:30;;;;;;;8.35;6.13;;;13.80;51.40;;;;;;5073028;28;20028;-82
2021/04/21 12:07:57;;;;;;;9.13;5.32;;;13.60;52.30;;;;;;5074285;28;20074;-81
2021/04/21 12:10:26;;;;;;;9.02;6.40;;;13.50;52.90;;;;;;5072937;28;20028;-82
2021/04/21 12:12:52;;;;;;;7.03;5.68;;;13.30;53.10;;;;;;5075128;28;20021;-82
2021/04/21 12:15:19;;;;;;;6.38;4.85;;;13.70;53.30;;;;;;5068579;28;20375;-82
2021/04/21 12:17:52;;;;;;;6.10;4.63;;;14.00;51.80;;;;;;5054646;28;20032;-83
2021/04/21 12:20:29;;;;;;;11.75;5.82;;;14.30;51.30;;;;;;5063763;28;20017;-83
2021/04/21 12:22:56;;;;;;;5.60;5.03;;;14.30;49.50;;;;;;5062524;28;20021;-82
2021/04/21 12:25:27;;;;;;;7.63;5.45;;;14.40;49.20;;;;;;5054091;28;20090;-80
2021/04/21 12:27:55;;;;;;;9.68;6.25;;;14.20;49.30;;;;;;5053870;28;20033;-81
2021/04/21 12:30:25;;;;;;;10.27;5.82;;;14.20;50.60;;;;;;5052581;28;20027;-80
2021/04/21 12:32:51;;;;;;;8.40;5.70;;;13.80;51.30;;;;;;5057630;28;20083;-82
2021/04/21 12:35:20;;;;;;;10.13;6.07;;;13.60;51.70;;;;;;5060997;28;20097;-81
2021/04/21 12:37:55;;;;;;;7.95;6.38;;;13.50;52.10;;;;;;5057594;28;21007;-81
2021/04/21 12:40:24;;;;;;;9.10;6.45;;;13.80;52.70;;;;;;5069475;28;20039;-81
2021/04/21 12:42:51;;;;;;;9.63;6.90;;;13.90;52.30;;;;;;5067318;28;20056;-81
2021/04/21 12:45:28;;;;;;;10.05;7.15;;;13.90;52.20;;;;;;5057438;28;20051;-82
2021/04/21 12:47:54;;;;;;;8.35;6.15;;;13.90;52.70;;;;;;5060262;28;20040;-82
2021/04/21 12:50:32;;;;;;;11.18;7.10;;;13.80;53.00;;;;;;5061586;28;20055;-81
2021/04/21 12:53:11;;;;;;;10.52;7.28;;;13.80;53.80;;;;;;5060024;28;20013;-80
2021/04/21 12:55:37;;;;;;;9.75;7.85;;;14.10;53.60;;;;;;5057821;28;20348;-81
2021/04/21 12:58:03;;;;;;;9.23;7.40;;;14.20;52.90;;;;;;5063452;28;20498;-81
2021/04/21 13:00:29;;;;;;;9.20;7.95;;;14.20;52.10;;;;;;5062896;28;20131;-81
2021/04/21 13:02:56;;;;;;;10.73;8.77;;;14.20;52.60;;;;;;5061235;28;20044;-81